createdAt,value
2022-11-06T00:00:43.515Z,95.64
2022-11-06T00:01:43.531Z,95.64
2022-11-06T00:02:43.522Z,95.74
2022-11-06T00:03:43.439Z,95.84
2022-11-06T00:04:43.430Z,95.80
2022-11-06T00:05:43.421Z,95.80
2022-11-06T00:06:43.385Z,95.59
2022-11-06T00:07:43.365Z,95.49
2022-11-06T00:08:43.379Z,95.39
2022-11-06T00:09:43.390Z,95.28
2022-11-06T00:10:43.357Z,95.18
2022-11-06T00:11:43.352Z,95.18
2022-11-06T00:12:43.320Z,95.28
2022-11-06T00:13:43.348Z,95.28
2022-11-06T00:14:43.316Z,95.18
2022-11-06T00:15:43.271Z,95.18
2022-11-06T00:16:43.247Z,95.02
2022-11-06T00:17:43.261Z,95.12
2022-11-06T00:18:43.225Z,95.02
2022-11-06T00:19:43.245Z,95.02
2022-11-06T00:20:43.212Z,95.22
2022-11-06T00:21:43.189Z,95.12
2022-11-06T00:22:43.195Z,95.02
2022-11-06T00:23:43.228Z,95.22
2022-11-06T00:24:43.316Z,95.32
2022-11-06T00:25:43.145Z,95.32
2022-11-06T00:26:43.148Z,95.32
2022-11-06T00:27:43.144Z,95.32
2022-11-06T00:28:43.110Z,95.22
2022-11-06T00:29:43.091Z,95.22
2022-11-06T00:30:43.085Z,95.22
2022-11-06T00:31:43.061Z,95.22
2022-11-06T00:32:43.081Z,95.22
2022-11-06T00:33:43.023Z,95.22
2022-11-06T00:34:43.051Z,95.32
2022-11-06T00:35:43.011Z,95.57
2022-11-06T00:36:43.043Z,95.68
2022-11-06T00:37:42.987Z,95.78
2022-11-06T00:38:43.041Z,95.78
2022-11-06T00:39:42.941Z,95.78
2022-11-06T00:40:42.951Z,95.78
2022-11-06T00:41:42.963Z,95.99
2022-11-06T00:42:42.899Z,96.09
2022-11-06T00:43:42.894Z,95.99
2022-11-06T00:44:42.903Z,96.20
2022-11-06T00:45:42.928Z,96.20
2022-11-06T00:46:42.865Z,95.99
2022-11-06T00:47:42.842Z,95.99
2022-11-06T00:48:42.864Z,96.09
2022-11-06T00:49:42.850Z,96.09
2022-11-06T00:50:42.809Z,96.05
2022-11-06T00:51:42.781Z,95.84
2022-11-06T00:52:42.775Z,95.64
2022-11-06T00:53:42.764Z,95.48
2022-11-06T00:54:42.784Z,95.37
2022-11-06T00:55:42.735Z,95.27
2022-11-06T00:56:42.715Z,95.27
2022-11-06T00:57:42.857Z,95.37
2022-11-06T00:58:42.707Z,95.37
2022-11-06T00:59:42.719Z,95.48
2022-11-06T01:00:42.683Z,95.48
2022-11-06T01:01:42.785Z,95.37
2022-11-06T01:02:42.906Z,95.57
2022-11-06T01:03:42.625Z,95.57
2022-11-06T01:04:42.652Z,95.57
2022-11-06T01:05:42.630Z,95.78
2022-11-06T01:06:42.602Z,95.78
2022-11-06T01:07:42.658Z,95.42
2022-11-06T01:08:42.571Z,95.21
2022-11-06T01:09:42.544Z,95.21
2022-11-06T01:10:42.558Z,95.31
2022-11-06T01:12:11.117Z,95.31
2022-11-06T01:12:42.559Z,95.46
2022-11-06T01:13:42.504Z,95.67
2022-11-06T01:14:42.507Z,95.56
2022-11-06T01:15:42.517Z,95.46
2022-11-06T01:16:42.488Z,95.50
2022-11-06T01:17:42.449Z,95.61
2022-11-06T01:18:42.438Z,95.81
2022-11-06T01:19:42.410Z,96.02
2022-11-06T01:20:42.418Z,96.33
2022-11-06T01:21:42.410Z,96.54
2022-11-06T01:22:42.390Z,96.75
2022-11-06T01:23:42.379Z,96.75
2022-11-06T01:24:42.387Z,96.85
2022-11-06T01:25:42.333Z,96.95
2022-11-06T01:26:53.484Z,97.06
2022-11-06T01:27:42.353Z,97.16
2022-11-06T01:28:42.296Z,97.36
2022-11-06T01:29:42.330Z,97.47
2022-11-06T01:30:42.290Z,97.47
2022-11-06T01:31:42.260Z,97.36
2022-11-06T01:32:42.284Z,97.36
2022-11-06T01:33:42.239Z,97.16
2022-11-06T01:34:42.230Z,97.26
2022-11-06T01:35:42.243Z,97.36
2022-11-06T01:36:42.203Z,97.47
2022-11-06T01:37:42.216Z,97.57
2022-11-06T01:38:42.193Z,97.67
2022-11-06T01:39:42.161Z,97.57
2022-11-06T01:40:42.142Z,97.57
2022-11-06T01:41:42.144Z,97.67
2022-11-06T01:42:42.117Z,97.78
2022-11-06T01:43:42.102Z,97.78
2022-11-06T01:44:42.113Z,97.78
2022-11-06T01:45:42.075Z,97.67
2022-11-06T01:46:42.067Z,97.74
2022-11-06T01:47:42.044Z,97.84
2022-11-06T01:48:42.032Z,97.84
2022-11-06T01:49:42.053Z,97.63
2022-11-06T01:50:42.032Z,97.53
2022-11-06T01:51:41.989Z,97.42
2022-11-06T01:52:41.993Z,97.22
2022-11-06T01:53:41.975Z,97.16
2022-11-06T01:54:41.949Z,97.16
2022-11-06T01:55:41.963Z,97.16
2022-11-06T01:56:41.968Z,97.26
2022-11-06T01:57:41.952Z,97.36
2022-11-06T01:58:41.906Z,97.36
2022-11-06T01:59:41.886Z,97.26
2022-11-06T02:00:41.872Z,97.06
2022-11-06T02:01:41.997Z,96.79
2022-11-06T02:02:42.011Z,96.48
2022-11-06T02:03:41.831Z,96.11
2022-11-06T02:04:41.822Z,95.84
2022-11-06T02:05:41.832Z,95.84
2022-11-06T02:06:41.800Z,96.20
2022-11-06T02:07:41.793Z,96.61
2022-11-06T02:08:41.773Z,97.03
2022-11-06T02:09:41.754Z,97.34
2022-11-06T02:10:41.767Z,97.55
2022-11-06T02:11:41.742Z,97.75
2022-11-06T02:12:41.720Z,97.75
2022-11-06T02:13:41.703Z,97.75
2022-11-06T02:14:41.705Z,97.75
2022-11-06T02:15:41.676Z,97.86
2022-11-06T02:16:41.668Z,97.86
2022-11-06T02:17:41.661Z,97.86
2022-11-06T02:18:41.667Z,97.44
2022-11-06T02:19:41.639Z,97.28
2022-11-06T02:20:41.605Z,97.17
2022-11-06T02:21:41.606Z,97.49
2022-11-06T02:22:41.576Z,97.69
2022-11-06T02:23:41.608Z,97.80
2022-11-06T02:24:41.567Z,97.90
2022-11-06T02:25:41.575Z,98.05
2022-11-06T02:26:41.540Z,98.26
2022-11-06T02:27:41.509Z,98.42
2022-11-06T02:28:41.515Z,98.73
2022-11-06T02:29:41.493Z,98.94
2022-11-06T02:30:41.507Z,99.04
2022-11-06T02:31:41.506Z,99.04
2022-11-06T02:32:41.456Z,99.04
2022-11-06T02:33:41.452Z,98.94
2022-11-06T02:34:41.425Z,99.04
2022-11-06T02:35:41.430Z,99.04
2022-11-06T02:36:41.421Z,98.90
2022-11-06T02:37:41.383Z,98.90
2022-11-06T02:38:41.363Z,99.00
2022-11-06T02:39:41.358Z,99.00
2022-11-06T02:40:41.356Z,98.90
2022-11-06T02:41:41.359Z,98.74
2022-11-06T02:42:41.320Z,98.54
2022-11-06T02:43:41.330Z,98.33
2022-11-06T02:44:41.296Z,98.22
2022-11-06T02:45:41.296Z,98.12
2022-11-06T02:46:41.299Z,97.87
2022-11-06T02:47:41.251Z,97.77
2022-11-06T02:48:41.231Z,97.56
2022-11-06T02:49:41.249Z,97.35
2022-11-06T02:50:41.229Z,97.25
2022-11-06T02:51:41.227Z,97.14
2022-11-06T02:52:41.198Z,97.19
2022-11-06T02:53:41.180Z,97.19
2022-11-06T02:54:41.172Z,97.09
2022-11-06T02:55:41.143Z,97.09
2022-11-06T02:56:41.145Z,97.19
2022-11-06T02:57:41.137Z,97.19
2022-11-06T02:58:46.155Z,97.14
2022-11-06T02:59:41.097Z,97.14
2022-11-06T03:00:41.091Z,97.04
2022-11-06T03:01:41.271Z,97.04
2022-11-06T03:02:41.278Z,97.04
2022-11-06T03:03:41.049Z,96.83
2022-11-06T03:04:41.034Z,96.83
2022-11-06T03:05:41.043Z,96.62
2022-11-06T03:06:41.015Z,96.52
2022-11-06T03:07:41.010Z,96.52
2022-11-06T03:08:40.983Z,96.52
2022-11-06T03:09:40.968Z,96.62
2022-11-06T03:10:40.950Z,96.83
2022-11-06T03:11:40.953Z,96.73
2022-11-06T03:12:40.946Z,96.52
2022-11-06T03:13:40.930Z,95.95
2022-11-06T03:14:40.903Z,94.95
2022-11-06T03:15:40.873Z,94.27
2022-11-06T03:16:40.855Z,94.53
2022-11-06T03:17:40.855Z,95.36
2022-11-06T03:18:40.874Z,95.77
2022-11-06T03:19:40.824Z,96.08
2022-11-06T03:20:40.810Z,96.44
2022-11-06T03:21:40.795Z,96.60
2022-11-06T03:22:40.796Z,96.91
2022-11-06T03:23:40.787Z,97.22
2022-11-06T03:24:40.784Z,97.43
2022-11-06T03:25:40.750Z,97.64
2022-11-06T03:26:40.738Z,97.95
2022-11-06T03:27:40.725Z,98.00
2022-11-06T03:28:40.710Z,98.11
2022-11-06T03:29:40.700Z,98.11
2022-11-06T03:30:40.687Z,98.11
2022-11-06T03:31:40.677Z,98.11
2022-11-06T03:32:40.651Z,98.00
2022-11-06T03:33:40.642Z,98.00
2022-11-06T03:34:40.646Z,97.90
2022-11-06T03:35:40.649Z,97.90
2022-11-06T03:36:40.591Z,98.00
2022-11-06T03:37:40.585Z,98.11
2022-11-06T03:38:42.401Z,98.17
2022-11-06T03:39:40.581Z,98.17
2022-11-06T03:40:40.584Z,98.17
2022-11-06T03:41:40.548Z,98.17
2022-11-06T03:42:40.518Z,97.96
2022-11-06T03:43:40.545Z,97.55
2022-11-06T03:44:40.510Z,96.92
2022-11-06T03:45:40.490Z,96.45
2022-11-06T03:46:40.489Z,96.03
2022-11-06T03:47:40.459Z,95.93
2022-11-06T03:48:40.445Z,96.03
2022-11-06T03:49:40.457Z,96.24
2022-11-06T03:50:40.398Z,96.45
2022-11-06T03:51:40.418Z,96.45
2022-11-06T03:52:43.142Z,96.45
2022-11-06T03:53:40.400Z,96.45
2022-11-06T03:54:40.357Z,96.55
2022-11-06T03:55:40.344Z,96.45
2022-11-06T03:56:40.332Z,96.50
2022-11-06T03:57:40.349Z,96.60
2022-11-06T03:58:40.364Z,96.81
2022-11-06T03:59:40.313Z,97.02
2022-11-06T04:00:40.290Z,97.12
2022-11-06T04:01:40.360Z,97.22
2022-11-06T04:02:40.398Z,97.33
2022-11-06T04:03:40.251Z,97.38
2022-11-06T04:04:40.219Z,97.59
2022-11-06T04:05:40.269Z,97.69
2022-11-06T04:06:40.207Z,97.38
2022-11-06T04:07:40.186Z,96.50
2022-11-06T04:08:40.173Z,96.02
2022-11-06T04:09:40.184Z,95.86
2022-11-06T04:10:40.154Z,96.37
2022-11-06T04:11:40.149Z,97.10
2022-11-06T04:12:40.117Z,97.41
2022-11-06T04:13:40.128Z,97.62
2022-11-06T04:14:40.117Z,97.72
2022-11-06T04:15:40.124Z,97.83
2022-11-06T04:16:40.073Z,97.93
2022-11-06T04:17:40.064Z,98.03
2022-11-06T04:18:40.034Z,98.24
2022-11-06T04:19:40.037Z,98.45
2022-11-06T04:20:40.050Z,98.51
2022-11-06T04:21:40.006Z,98.61
2022-11-06T04:22:39.978Z,98.72
2022-11-06T04:23:40.001Z,98.93
2022-11-06T04:24:39.991Z,99.09
2022-11-06T04:25:39.943Z,99.19
2022-11-06T04:26:39.932Z,99.40
2022-11-06T04:27:39.923Z,99.56
2022-11-06T04:28:39.929Z,99.66
2022-11-06T04:29:39.914Z,99.77
2022-11-06T04:30:39.888Z,99.98
2022-11-06T04:31:39.891Z,99.99
2022-11-06T04:32:39.855Z,99.99
2022-11-06T04:33:39.861Z,99.99
2022-11-06T04:34:39.847Z,99.99
2022-11-06T04:35:39.823Z,99.99
2022-11-06T04:36:39.805Z,99.99
2022-11-06T04:37:39.839Z,99.99
2022-11-06T04:38:39.771Z,99.99
2022-11-06T04:39:39.769Z,99.99
2022-11-06T04:40:39.764Z,99.99
2022-11-06T04:41:39.759Z,99.99
2022-11-06T04:42:39.723Z,99.99
2022-11-06T04:43:39.724Z,99.99
2022-11-06T04:44:39.708Z,99.99
2022-11-06T04:45:39.695Z,99.99
2022-11-06T04:46:39.666Z,99.99
2022-11-06T04:47:39.667Z,99.99
2022-11-06T04:48:39.672Z,99.99
2022-11-06T04:49:39.628Z,99.99
2022-11-06T04:50:39.630Z,99.99
2022-11-06T04:51:39.606Z,99.99
2022-11-06T04:52:39.601Z,99.99
2022-11-06T04:53:39.609Z,99.99
2022-11-06T04:54:39.586Z,99.99
2022-11-06T04:55:39.568Z,99.99
2022-11-06T04:56:44.745Z,99.99
2022-11-06T04:57:39.527Z,99.99
2022-11-06T04:58:39.523Z,99.99
2022-11-06T04:59:39.515Z,99.99
2022-11-06T05:00:39.527Z,99.99
2022-11-06T05:01:39.621Z,99.99
2022-11-06T05:02:39.465Z,99.99
2022-11-06T05:03:39.452Z,99.99
2022-11-06T05:04:39.422Z,99.99
2022-11-06T05:05:39.447Z,99.99
2022-11-06T05:06:39.419Z,99.99
2022-11-06T05:07:39.395Z,99.99
2022-11-06T05:08:39.397Z,99.99
2022-11-06T05:09:39.365Z,99.99
2022-11-06T05:10:39.377Z,99.99
2022-11-06T05:11:39.391Z,99.99
2022-11-06T05:12:39.325Z,99.99
2022-11-06T05:13:39.308Z,99.99
2022-11-06T05:14:39.295Z,99.99
2022-11-06T05:15:39.306Z,99.99
2022-11-06T05:16:39.305Z,99.99
2022-11-06T05:17:39.265Z,99.99
2022-11-06T05:18:39.272Z,99.99
2022-11-06T05:19:39.226Z,99.99
2022-11-06T05:20:39.213Z,99.99
2022-11-06T05:21:39.235Z,99.99
2022-11-06T05:22:39.197Z,99.99
2022-11-06T05:23:39.209Z,99.99
2022-11-06T05:24:39.175Z,99.99
2022-11-06T05:25:39.150Z,99.99
2022-11-06T05:26:39.141Z,99.99
2022-11-06T05:27:39.174Z,99.99
2022-11-06T05:28:39.103Z,99.99
2022-11-06T05:29:39.114Z,99.99
2022-11-06T05:30:39.080Z,99.99
2022-11-06T05:31:39.084Z,99.99
2022-11-06T05:32:39.054Z,99.99
2022-11-06T05:33:39.059Z,99.99
2022-11-06T05:34:39.062Z,99.99
2022-11-06T05:35:39.032Z,99.99
2022-11-06T05:36:39.000Z,99.99
2022-11-06T05:37:39.012Z,99.99
2022-11-06T05:38:38.980Z,99.99
2022-11-06T05:39:41.845Z,99.99
2022-11-06T05:40:38.955Z,99.99
2022-11-06T05:41:38.947Z,99.99
2022-11-06T05:42:38.944Z,99.99
2022-11-06T05:43:38.917Z,99.99
2022-11-06T05:44:38.893Z,99.99
2022-11-06T05:45:38.883Z,99.99
2022-11-06T05:46:54.364Z,99.99
2022-11-06T05:47:38.881Z,99.99
2022-11-06T05:48:38.844Z,99.99
2022-11-06T05:49:38.822Z,99.99
2022-11-06T05:50:38.818Z,99.99
2022-11-06T05:51:38.819Z,99.99
2022-11-06T05:52:38.780Z,99.99
2022-11-06T05:53:38.787Z,99.99
2022-11-06T05:54:38.769Z,99.99
2022-11-06T05:55:38.768Z,99.99
2022-11-06T05:56:38.765Z,99.99
2022-11-06T05:57:38.738Z,99.99
2022-11-06T05:58:38.705Z,99.99
2022-11-06T05:59:38.700Z,99.99
2022-11-06T06:00:38.691Z,99.99
2022-11-06T06:01:38.855Z,99.99
2022-11-06T06:02:38.789Z,99.99
2022-11-06T06:03:38.641Z,99.99
2022-11-06T06:04:38.630Z,99.99
2022-11-06T06:05:38.618Z,99.99
2022-11-06T06:06:38.633Z,99.99
2022-11-06T06:07:38.599Z,99.99
2022-11-06T06:08:38.611Z,99.99
2022-11-06T06:09:38.566Z,99.99
2022-11-06T06:10:38.560Z,99.99
2022-11-06T06:11:38.582Z,99.99
2022-11-06T06:12:38.547Z,99.99
2022-11-06T06:13:38.570Z,99.99
2022-11-06T06:14:38.559Z,99.99
2022-11-06T06:15:38.497Z,99.99
2022-11-06T06:16:38.472Z,99.99
2022-11-06T06:17:38.501Z,99.99
2022-11-06T06:18:38.450Z,99.99
2022-11-06T06:19:38.444Z,99.99
2022-11-06T06:20:38.427Z,99.99
2022-11-06T06:21:38.443Z,99.99
2022-11-06T06:22:38.399Z,99.99
2022-11-06T06:23:38.392Z,99.99
2022-11-06T06:24:38.489Z,99.99
2022-11-06T06:25:38.354Z,99.99
2022-11-06T06:26:38.377Z,99.99
2022-11-06T06:27:38.462Z,99.99
2022-11-06T06:28:38.322Z,99.99
2022-11-06T06:29:38.329Z,99.99
2022-11-06T06:30:38.296Z,99.99
2022-11-06T06:31:38.309Z,99.99
2022-11-06T06:32:38.280Z,99.99
2022-11-06T06:33:38.267Z,99.99
2022-11-06T06:34:38.318Z,99.99
2022-11-06T06:35:38.239Z,99.99
2022-11-06T06:36:38.261Z,99.99
2022-11-06T06:37:38.219Z,99.99
2022-11-06T06:38:38.293Z,99.99
2022-11-06T06:39:38.208Z,99.99
2022-11-06T06:40:38.176Z,99.99
2022-11-06T06:41:38.153Z,99.99
2022-11-06T06:42:38.157Z,99.99
2022-11-06T06:43:38.125Z,99.99
2022-11-06T06:44:38.175Z,99.99
2022-11-06T06:45:38.101Z,99.99
2022-11-06T06:46:38.093Z,99.99
2022-11-06T06:47:38.073Z,99.99
2022-11-06T06:48:38.069Z,99.99
2022-11-06T06:49:38.430Z,99.99
2022-11-06T06:50:38.029Z,99.99
2022-11-06T06:51:38.026Z,99.99
2022-11-06T06:52:38.023Z,99.99
2022-11-06T06:53:37.988Z,99.99
2022-11-06T06:54:37.999Z,99.99
2022-11-06T06:55:37.991Z,99.99
2022-11-06T06:56:37.951Z,99.99
2022-11-06T06:57:37.942Z,99.99
2022-11-06T06:58:37.927Z,99.99
2022-11-06T06:59:37.928Z,99.99
2022-11-06T07:00:37.942Z,99.99
2022-11-06T07:01:38.033Z,99.99
2022-11-06T07:02:37.870Z,99.99
2022-11-06T07:03:37.903Z,99.99
2022-11-06T07:04:37.884Z,99.99
2022-11-06T07:05:37.835Z,99.99
2022-11-06T07:06:37.853Z,99.99
2022-11-06T07:07:37.838Z,99.99
2022-11-06T07:08:37.803Z,99.99
2022-11-06T07:09:37.806Z,99.99
2022-11-06T07:10:37.755Z,99.99
2022-11-06T07:11:37.781Z,99.99
2022-11-06T07:12:37.742Z,99.99
2022-11-06T07:13:37.729Z,99.99
2022-11-06T07:14:37.720Z,99.99
2022-11-06T07:15:37.713Z,99.99
2022-11-06T07:16:37.730Z,99.99
2022-11-06T07:17:37.696Z,99.99
2022-11-06T07:18:37.672Z,99.99
2022-11-06T07:19:37.654Z,99.99
2022-11-06T07:20:37.627Z,99.99
2022-11-06T07:21:37.668Z,99.99
2022-11-06T07:22:37.968Z,99.99
2022-11-06T07:23:37.605Z,99.99
2022-11-06T07:24:37.576Z,99.99
2022-11-06T07:25:37.568Z,99.99
2022-11-06T07:26:37.573Z,99.99
2022-11-06T07:27:37.554Z,99.99
2022-11-06T07:28:37.544Z,99.99
2022-11-06T07:29:37.529Z,99.99
2022-11-06T07:30:37.531Z,99.99
2022-11-06T07:31:37.496Z,99.99
2022-11-06T07:32:37.496Z,99.99
2022-11-06T07:33:37.495Z,99.99
2022-11-06T07:34:37.449Z,99.99
2022-11-06T07:35:37.458Z,99.99
2022-11-06T07:36:37.439Z,99.99
2022-11-06T07:37:37.417Z,99.99
2022-11-06T07:38:37.421Z,99.99
2022-11-06T07:39:37.391Z,99.99
2022-11-06T07:40:37.376Z,99.99
2022-11-06T07:41:37.395Z,99.99
2022-11-06T07:42:43.154Z,99.99
2022-11-06T07:43:37.338Z,99.99
2022-11-06T07:44:37.342Z,99.99
2022-11-06T07:45:37.314Z,99.99
2022-11-06T07:46:37.289Z,99.99
2022-11-06T07:47:37.306Z,99.99
2022-11-06T07:48:37.287Z,99.99
2022-11-06T07:49:37.278Z,99.99
2022-11-06T07:50:37.238Z,99.99
2022-11-06T07:51:37.230Z,99.99
2022-11-06T07:52:37.266Z,99.99
2022-11-06T07:53:37.213Z,99.99
2022-11-06T07:54:37.185Z,99.99
2022-11-06T07:55:41.966Z,99.99
2022-11-06T07:56:37.179Z,99.99
2022-11-06T07:57:37.164Z,99.99
2022-11-06T07:58:37.176Z,99.99
2022-11-06T07:59:37.121Z,99.99
2022-11-06T08:00:37.156Z,99.99
2022-11-06T08:01:37.281Z,99.99
2022-11-06T08:02:37.126Z,99.99
2022-11-06T08:03:37.070Z,99.99
2022-11-06T08:04:37.082Z,99.99
2022-11-06T08:05:37.040Z,99.99
2022-11-06T08:06:37.058Z,99.99
2022-11-06T08:07:37.020Z,99.99
2022-11-06T08:08:37.008Z,99.99
2022-11-06T08:09:36.992Z,99.99
2022-11-06T08:10:36.983Z,99.99
2022-11-06T08:11:37.001Z,99.99
2022-11-06T08:12:36.944Z,99.99
2022-11-06T08:13:36.941Z,99.99
2022-11-06T08:14:41.309Z,99.99
2022-11-06T08:15:36.935Z,99.99
2022-11-06T08:16:36.899Z,99.99
2022-11-06T08:17:36.892Z,99.99
2022-11-06T08:18:36.886Z,99.99
2022-11-06T08:19:36.870Z,99.99
2022-11-06T08:20:36.868Z,99.99
2022-11-06T08:21:36.825Z,99.99
2022-11-06T08:22:36.812Z,99.99
2022-11-06T08:23:36.851Z,99.99
2022-11-06T08:24:36.779Z,99.99
2022-11-06T08:25:36.788Z,99.99
2022-11-06T08:26:36.765Z,99.99
2022-11-06T08:27:36.796Z,99.99
2022-11-06T08:28:36.748Z,99.99
2022-11-06T08:29:41.146Z,99.99
2022-11-06T08:30:36.715Z,99.99
2022-11-06T08:31:36.726Z,99.99
2022-11-06T08:32:36.721Z,99.99
2022-11-06T08:33:36.715Z,99.99
2022-11-06T08:34:36.680Z,99.99
2022-11-06T08:35:36.646Z,99.99
2022-11-06T08:36:36.637Z,99.99
2022-11-06T08:37:36.648Z,99.99
2022-11-06T08:38:36.628Z,99.99
2022-11-06T08:39:36.628Z,99.99
2022-11-06T08:40:36.586Z,99.99
2022-11-06T08:41:36.605Z,99.99
2022-11-06T08:42:36.571Z,99.99
2022-11-06T08:43:36.572Z,99.99
2022-11-06T08:44:36.531Z,99.99
2022-11-06T08:45:36.513Z,99.99
2022-11-06T08:46:36.512Z,99.99
2022-11-06T08:47:36.493Z,99.99
2022-11-06T08:48:36.495Z,99.99
2022-11-06T08:49:36.464Z,99.99
2022-11-06T08:50:36.458Z,99.99
2022-11-06T08:51:36.451Z,99.99
2022-11-06T08:52:36.432Z,99.92
2022-11-06T08:53:36.506Z,99.40
2022-11-06T08:54:36.395Z,98.88
2022-11-06T08:55:36.395Z,98.88
2022-11-06T08:56:36.393Z,98.88
2022-11-06T08:57:36.379Z,99.04
2022-11-06T08:58:36.357Z,99.04
2022-11-06T08:59:36.331Z,98.62
2022-11-06T09:00:36.339Z,98.77
2022-11-06T09:01:36.468Z,98.97
2022-11-06T09:02:36.392Z,99.18
2022-11-06T09:03:36.303Z,99.39
2022-11-06T09:04:41.234Z,99.70
2022-11-06T09:05:36.257Z,99.91
2022-11-06T09:06:36.272Z,99.99
2022-11-06T09:07:36.234Z,99.99
2022-11-06T09:08:36.246Z,99.99
2022-11-06T09:09:36.227Z,99.99
2022-11-06T09:10:36.191Z,99.99
2022-11-06T09:11:36.182Z,99.99
2022-11-06T09:12:36.171Z,99.99
2022-11-06T09:13:36.145Z,99.99
2022-11-06T09:14:36.157Z,99.99
2022-11-06T09:15:36.179Z,99.99
2022-11-06T09:16:36.127Z,99.99
2022-11-06T09:17:36.107Z,99.99
2022-11-06T09:18:36.100Z,99.99
2022-11-06T09:19:36.070Z,99.99
2022-11-06T09:20:36.070Z,99.99
2022-11-06T09:21:36.094Z,99.99
2022-11-06T09:22:36.050Z,99.99
2022-11-06T09:23:36.008Z,99.99
2022-11-06T09:25:01.420Z,99.99
2022-11-06T09:25:35.997Z,99.99
2022-11-06T09:26:35.999Z,99.99
2022-11-06T09:27:35.958Z,99.99
2022-11-06T09:28:35.952Z,99.99
2022-11-06T09:29:35.970Z,99.99
2022-11-06T09:30:35.931Z,99.99
2022-11-06T09:31:35.965Z,99.99
2022-11-06T09:32:35.898Z,99.99
2022-11-06T09:33:35.914Z,99.99
2022-11-06T09:34:35.944Z,99.99
2022-11-06T09:35:35.850Z,99.99
2022-11-06T09:36:35.841Z,99.99
2022-11-06T09:37:35.842Z,99.99
2022-11-06T09:38:35.834Z,99.99
2022-11-06T09:39:35.815Z,99.99
2022-11-06T09:40:35.830Z,99.99
2022-11-06T09:41:35.783Z,99.99
2022-11-06T09:42:35.768Z,99.99
2022-11-06T09:44:04.689Z,99.99
2022-11-06T09:44:35.756Z,99.99
2022-11-06T09:45:35.714Z,99.99
2022-11-06T09:46:35.731Z,99.99
2022-11-06T09:47:35.714Z,99.99
2022-11-06T09:48:35.679Z,99.99
2022-11-06T09:49:35.715Z,99.99
2022-11-06T09:50:35.671Z,99.99
2022-11-06T09:51:35.677Z,99.99
2022-11-06T09:52:35.649Z,99.99
2022-11-06T09:53:35.643Z,99.99
2022-11-06T09:54:35.645Z,99.99
2022-11-06T09:55:35.598Z,99.99
2022-11-06T09:56:35.628Z,99.99
2022-11-06T09:57:35.599Z,99.99
2022-11-06T09:58:35.562Z,99.99
2022-11-06T09:59:35.574Z,99.99
2022-11-06T10:00:35.525Z,99.99
2022-11-06T10:01:35.662Z,99.99
2022-11-06T10:02:35.586Z,99.99
2022-11-06T10:03:35.491Z,99.99
2022-11-06T10:04:35.547Z,99.99
2022-11-06T10:05:35.472Z,99.99
2022-11-06T10:06:35.454Z,99.99
2022-11-06T10:07:35.452Z,99.99
2022-11-06T10:08:35.415Z,99.99
2022-11-06T10:09:35.417Z,99.99
2022-11-06T10:10:35.415Z,99.99
2022-11-06T10:11:35.409Z,99.99
2022-11-06T10:12:35.411Z,99.99
2022-11-06T10:13:35.372Z,99.99
2022-11-06T10:14:35.340Z,99.99
2022-11-06T10:15:35.353Z,99.99
2022-11-06T10:16:35.329Z,99.99
2022-11-06T10:17:35.319Z,99.99
2022-11-06T10:18:35.296Z,99.99
2022-11-06T10:19:35.320Z,99.99
2022-11-06T10:20:35.269Z,99.99
2022-11-06T10:21:35.282Z,99.99
2022-11-06T10:22:35.251Z,99.99
2022-11-06T10:23:35.257Z,99.99
2022-11-06T10:24:35.221Z,99.99
2022-11-06T10:25:35.233Z,99.99
2022-11-06T10:26:35.215Z,99.99
2022-11-06T10:27:35.200Z,99.99
2022-11-06T10:28:35.213Z,99.99
2022-11-06T10:29:35.133Z,99.99
2022-11-06T10:30:35.144Z,99.99
2022-11-06T10:31:35.125Z,99.99
2022-11-06T10:32:35.145Z,99.99
2022-11-06T10:33:35.088Z,99.99
2022-11-06T10:34:35.114Z,99.99
2022-11-06T10:35:35.082Z,99.99
2022-11-06T10:36:35.095Z,99.99
2022-11-06T10:37:35.056Z,99.99
2022-11-06T10:38:35.028Z,99.99
2022-11-06T10:39:35.013Z,99.99
2022-11-06T10:40:35.031Z,99.99
2022-11-06T10:41:34.988Z,99.99
2022-11-06T10:42:38.053Z,99.85
2022-11-06T10:43:34.967Z,99.64
2022-11-06T10:44:34.962Z,99.54
2022-11-06T10:45:34.935Z,99.23
2022-11-06T10:46:34.936Z,99.08
2022-11-06T10:47:34.915Z,99.08
2022-11-06T10:48:40.089Z,99.08
2022-11-06T10:49:34.885Z,98.77
2022-11-06T10:50:34.874Z,98.15
2022-11-06T10:51:34.869Z,98.52
2022-11-06T10:52:34.871Z,98.52
2022-11-06T10:53:34.828Z,98.42
2022-11-06T10:54:34.842Z,98.62
2022-11-06T10:55:34.843Z,98.58
2022-11-06T10:56:34.834Z,98.47
2022-11-06T10:57:34.767Z,98.06
2022-11-06T10:58:34.783Z,97.75
2022-11-06T10:59:34.779Z,97.55
2022-11-06T11:00:34.746Z,97.34
2022-11-06T11:01:34.893Z,97.19
2022-11-06T11:02:34.859Z,96.93
2022-11-06T11:03:34.695Z,96.62
2022-11-06T11:04:34.675Z,96.89
2022-11-06T11:05:34.683Z,97.30
2022-11-06T11:06:34.681Z,97.19
2022-11-06T11:07:34.712Z,96.68
2022-11-06T11:08:34.631Z,96.27
2022-11-06T11:09:34.628Z,96.06
2022-11-06T11:10:34.645Z,96.27
2022-11-06T11:11:34.622Z,96.58
2022-11-06T11:12:34.576Z,96.64
2022-11-06T11:13:34.564Z,96.22
2022-11-06T11:14:34.588Z,95.71
2022-11-06T11:15:34.552Z,95.75
2022-11-06T11:16:34.516Z,95.45
2022-11-06T11:17:34.501Z,96.06
2022-11-06T11:18:34.535Z,96.47
2022-11-06T11:19:34.503Z,96.27
2022-11-06T11:20:34.470Z,96.12
2022-11-06T11:21:34.494Z,95.61
2022-11-06T11:22:34.466Z,95.09
2022-11-06T11:23:34.534Z,95.20
2022-11-06T11:24:34.596Z,95.61
2022-11-06T11:25:34.434Z,95.25
2022-11-06T11:26:34.392Z,94.95
2022-11-06T11:27:34.392Z,94.23
2022-11-06T11:28:34.356Z,94.23
2022-11-06T11:29:34.355Z,93.57
2022-11-06T11:30:34.396Z,93.46
2022-11-06T11:31:34.445Z,93.16
2022-11-06T11:32:34.335Z,93.05
2022-11-06T11:33:34.298Z,93.05
2022-11-06T11:34:34.287Z,92.91
2022-11-06T11:35:34.278Z,93.21
2022-11-06T11:36:34.280Z,93.42
2022-11-06T11:37:34.291Z,93.01
2022-11-06T11:38:34.239Z,93.12
2022-11-06T11:39:34.216Z,92.60
2022-11-06T11:40:34.253Z,92.19
2022-11-06T11:41:34.203Z,91.88
2022-11-06T11:42:34.189Z,91.16
2022-11-06T11:43:34.185Z,91.37
2022-11-06T11:44:34.172Z,91.99
2022-11-06T11:45:34.195Z,92.80
2022-11-06T11:46:34.198Z,93.01
2022-11-06T11:47:34.258Z,93.73
2022-11-06T11:48:34.119Z,93.73
2022-11-06T11:49:34.093Z,93.83
2022-11-06T11:50:34.101Z,93.83
2022-11-06T11:51:34.081Z,93.73
2022-11-06T11:52:34.074Z,93.63
2022-11-06T11:53:34.065Z,93.48
2022-11-06T11:54:34.022Z,93.27
2022-11-06T11:55:34.006Z,92.76
2022-11-06T11:57:02.955Z,92.60
2022-11-06T11:57:33.993Z,92.60
2022-11-06T11:58:33.958Z,92.40
2022-11-06T11:59:33.952Z,92.50
2022-11-06T12:00:33.939Z,92.91
2022-11-06T12:01:34.002Z,93.12
2022-11-06T12:02:34.166Z,93.12
2022-11-06T12:03:33.903Z,92.70
2022-11-06T12:04:33.898Z,92.91
2022-11-06T12:05:33.900Z,92.70
2022-11-06T12:06:33.866Z,93.01
2022-11-06T12:07:33.913Z,93.21
2022-11-06T12:08:33.837Z,93.42
2022-11-06T12:09:33.828Z,93.32
2022-11-06T12:10:33.797Z,93.17
2022-11-06T12:11:33.773Z,93.27
2022-11-06T12:12:33.787Z,93.27
2022-11-06T12:13:33.791Z,92.76
2022-11-06T12:14:33.747Z,92.97
2022-11-06T12:15:33.740Z,93.17
2022-11-06T12:16:33.720Z,93.07
2022-11-06T12:17:33.750Z,92.55
2022-11-06T12:18:33.725Z,91.84
2022-11-06T12:19:33.692Z,91.74
2022-11-06T12:20:33.692Z,91.37
2022-11-06T12:21:33.659Z,91.47
2022-11-06T12:22:33.652Z,91.67
2022-11-06T12:23:33.688Z,92.04
2022-11-06T12:24:33.618Z,92.35
2022-11-06T12:25:33.611Z,92.35
2022-11-06T12:26:33.590Z,92.66
2022-11-06T12:27:33.593Z,92.76
2022-11-06T12:28:33.636Z,92.66
2022-11-06T12:29:33.568Z,92.86
2022-11-06T12:30:33.569Z,93.17
2022-11-06T12:31:33.527Z,93.27
2022-11-06T12:32:33.560Z,93.59
2022-11-06T12:34:04.470Z,93.68
2022-11-06T12:34:33.498Z,93.79
2022-11-06T12:35:33.475Z,93.79
2022-11-06T12:36:33.454Z,93.79
2022-11-06T12:37:33.446Z,94.40
2022-11-06T12:38:33.454Z,94.92
2022-11-06T12:39:33.430Z,95.02
2022-11-06T12:40:33.433Z,94.92
2022-11-06T12:41:33.397Z,94.81
2022-11-06T12:42:33.376Z,94.55
2022-11-06T12:43:33.366Z,94.45
2022-11-06T12:44:33.370Z,94.45
2022-11-06T12:45:33.370Z,94.45
2022-11-06T12:46:33.333Z,94.55
2022-11-06T12:47:33.327Z,94.65
2022-11-06T12:48:33.292Z,94.65
2022-11-06T12:49:33.279Z,94.65
2022-11-06T12:50:33.288Z,94.65
2022-11-06T12:51:33.295Z,94.65
2022-11-06T12:52:33.269Z,94.76